Time;durP1;ratioP1;P1;durP2;ratioP2;P2;SDS_P1;SDS_P2;PMS_P1;PMS_P2;Temp;Humidity;BMP_temperature;BMP_pressure;BME280_temperature;BME280_humidity;BME280_pressure;Samples;Min_cycle;Max_cycle;Signal;HPM_P1;HPM_P2
2023/08/11 00:00:09;;;;;;;8.93;4.22;;;;;;;16.29;84.97;98052.19;10375567;28;20060;-51
2023/08/11 00:05:08;;;;;;;14.60;4.55;;;;;;;16.13;86.17;98060.38;10375426;28;20106;-53
2023/08/11 00:10:07;;;;;;;7.80;4.80;;;;;;;15.98;86.82;98069.38;10375996;28;20045;-53
2023/08/11 00:15:07;;;;;;;7.22;4.53;;;;;;;15.91;87.26;98059.91;10374961;28;20063;-48
2023/08/11 00:20:06;;;;;;;16.88;4.88;;;;;;;15.82;87.54;98064.38;10375041;28;20056;-50
2023/08/11 00:25:06;;;;;;;10.73;4.60;;;;;;;15.77;87.54;98068.81;10374806;28;20067;-48
2023/08/11 00:30:05;;;;;;;7.40;4.57;;;;;;;15.71;87.52;98073.28;10374665;28;20076;-51
2023/08/11 00:35:05;;;;;;;8.07;4.97;;;;;;;15.59;88.12;98063.88;10374455;28;20059;-51
2023/08/11 00:40:06;;;;;;;7.55;4.78;;;;;;;15.53;88.74;98061.34;10374539;28;20065;-51
2023/08/11 00:45:06;;;;;;;10.90;4.63;;;;;;;15.16;89.08;98015.75;10374887;28;20072;-51
2023/08/11 00:50:06;;;;;;;8.70;4.40;;;;;;;15.31;88.98;98050.38;10373693;28;20522;-48
2023/08/11 00:55:09;;;;;;;10.80;5.15;;;;;;;15.28;89.51;98055.66;10374074;28;20056;-51
2023/08/11 01:00:12;;;;;;;8.48;5.15;;;;;;;15.23;89.91;98059.19;10373781;28;20492;-51
2023/08/11 01:05:14;;;;;;;6.38;4.95;;;;;;;15.16;90.07;98052.34;10372939;28;20499;-51
2023/08/11 01:10:20;;;;;;;11.20;5.68;;;;;;;15.12;90.37;98055.88;10373397;28;20060;-51
2023/08/11 01:15:24;;;;;;;9.85;5.82;;;;;;;15.05;90.35;98056.84;10373666;28;20488;-51
2023/08/11 01:20:23;;;;;;;8.95;6.05;;;;;;;14.97;90.27;98048.25;10367742;28;20460;-49
2023/08/11 01:25:23;;;;;;;8.90;5.72;;;;;;;14.90;90.13;98059.69;10373197;28;20053;-51
2023/08/11 01:30:23;;;;;;;8.70;6.43;;;;;;;14.56;89.98;98015.66;10373709;28;20136;-50
2023/08/11 01:35:22;;;;;;;12.07;7.32;;;;;;;14.49;90.62;98020.09;10373035;28;20071;-50
2023/08/11 01:40:22;;;;;;;11.02;7.60;;;;;;;14.63;91.30;98038.22;10372726;28;20063;-48
2023/08/11 01:45:22;;;;;;;11.88;7.75;;;;;;;14.74;91.67;98059.88;10372814;28;20605;-49
2023/08/11 01:50:21;;;;;;;10.18;7.15;;;;;;;14.74;91.71;98062.50;10373479;28;20088;-50
2023/08/11 01:55:21;;;;;;;9.93;7.72;;;;;;;14.76;91.65;98073.78;10372728;28;20060;-49
2023/08/11 02:00:20;;;;;;;11.63;8.10;;;;;;;14.75;92.13;98066.81;10375554;28;20057;-51
2023/08/11 02:05:19;;;;;;;11.98;9.00;;;;;;;14.70;91.91;98081.69;10376647;28;20076;-50
2023/08/11 02:10:18;;;;;;;;;;;;;;;14.67;92.28;98059.94;10376344;28;20098;-50
2023/08/11 02:15:17;;;;;;;11.63;8.10;;;;;;;14.61;92.28;98068.72;10375873;28;19910;-48
2023/08/11 02:20:22;;;;;;;15.15;7.88;;;;;;;14.59;91.77;98070.47;10383030;28;20033;-48
2023/08/11 02:25:25;;;;;;;14.00;8.85;;;;;;;14.49;92.83;98069.72;10377260;28;20129;-50
2023/08/11 02:30:29;;;;;;;19.02;8.27;;;;;;;14.30;94.28;98076.91;10382769;28;20035;-48
2023/08/11 02:35:28;;;;;;;13.35;8.23;;;;;;;14.27;94.02;98070.84;10383403;28;20047;-50
2023/08/11 02:40:27;;;;;;;12.98;8.52;;;;;;;14.23;93.95;98071.75;10382800;28;20052;-51
2023/08/11 02:45:26;;;;;;;13.77;8.27;;;;;;;14.16;93.79;98078.78;10382204;28;20087;-51
2023/08/11 02:50:25;;;;;;;;;;;;;;;14.11;93.86;98073.63;10382603;28;20427;-51
2023/08/11 02:55:24;;;;;;;13.60;8.95;;;;;;;14.07;93.34;98076.28;10381671;28;19955;-48
2023/08/11 03:00:23;;;;;;;14.55;9.93;;;;;;;13.98;93.68;98070.28;10379657;28;20079;-50
2023/08/11 03:05:22;;;;;;;;;;;;;;;13.97;93.65;98078.97;10378622;28;20049;-49
2023/08/11 03:10:21;;;;;;;13.45;8.85;;;;;;;13.96;93.80;98077.25;10379107;28;20392;-51
2023/08/11 03:15:20;;;;;;;;;;;;;;;13.91;94.12;98084.25;10378161;28;20551;-51
2023/08/11 03:20:19;;;;;;;11.07;8.25;;;;;;;13.85;95.01;98086.91;10377201;28;19923;-49
2023/08/11 03:25:18;;;;;;;9.13;7.22;;;;;;;13.61;95.38;98094.91;10376868;28;20064;-51
2023/08/11 03:30:16;;;;;;;11.32;6.63;;;;;;;13.35;96.20;98102.03;10376689;28;20037;-51
2023/08/11 03:35:17;;;;;;;8.30;6.30;;;;;;;13.15;97.17;98103.91;10376874;28;20472;-50
2023/08/11 03:40:16;;;;;;;9.57;6.07;;;;;;;13.05;96.26;98107.44;10377344;28;20069;-49
2023/08/11 03:45:15;;;;;;;39.90;7.95;;;;;;;12.75;96.79;98090.22;10376914;28;20083;-48
2023/08/11 03:50:14;;;;;;;;;;;;;;;12.87;96.97;98116.19;10376872;28;20028;-50
2023/08/11 03:55:13;;;;;;;10.63;7.53;;;;;;;12.96;96.62;98110.94;10376810;28;19967;-48
2023/08/11 04:00:15;;;;;;;;;;;;;;;13.06;96.90;98117.84;10377297;28;20115;-51
2023/08/11 04:05:14;;;;;;;19.50;8.57;;;;;;;13.18;96.93;98124.72;10375499;28;19963;-51
2023/08/11 04:10:15;;;;;;;;;;;;;;;13.28;96.71;98122.91;10375898;28;20029;-51
2023/08/11 04:15:15;;;;;;;10.80;7.72;;;;;;;13.39;96.51;98118.50;10374926;28;19952;-51
2023/08/11 04:20:15;;;;;;;13.30;9.27;;;;;;;13.51;96.06;98131.47;10375084;28;20495;-51
2023/08/11 04:25:13;;;;;;;8.60;7.20;;;;;;;13.44;96.40;98137.59;10375832;28;20080;-48
2023/08/11 04:30:12;;;;;;;;;;;;;;;13.45;96.69;98130.66;10375363;28;20119;-50
2023/08/11 04:35:12;;;;;;;11.82;7.90;;;;;;;13.52;96.35;98135.81;10374713;28;19912;-51
2023/08/11 04:40:13;;;;;;;15.25;8.48;;;;;;;13.62;96.33;98149.69;10373714;28;20484;-52
2023/08/11 04:45:14;;;;;;;14.23;8.55;;;;;;;13.40;96.70;98101.13;10375118;28;20080;-51
2023/08/11 04:50:13;;;;;;;10.75;8.25;;;;;;;13.83;96.70;98151.28;10374927;28;20510;-50
2023/08/11 04:55:12;;;;;;;;;;;;;;;14.13;96.40;98159.72;10373126;28;20475;-48
2023/08/11 05:00:16;;;;;;;10.80;8.27;;;;;;;14.45;95.65;98153.31;10376323;28;19913;-49
2023/08/11 05:05:15;;;;;;;9.57;6.90;;;;;;;14.66;95.54;98152.22;10377158;28;20041;-51
2023/08/11 05:10:14;;;;;;;;;;;;;;;14.82;94.23;98151.22;10378462;28;20076;-47
2023/08/11 05:15:14;;;;;;;;;;;;;;;15.03;93.21;98147.47;10377453;28;19967;-50
2023/08/11 05:20:15;;;;;;;9.48;6.50;;;;;;;15.14;92.55;98147.34;10377150;28;19912;-49
2023/08/11 05:25:13;;;;;;;9.20;7.22;;;;;;;15.24;91.41;98146.34;10377117;28;20048;-53
2023/08/11 05:30:12;;;;;;;;;;;;;;;15.34;91.26;98158.41;10376250;28;20033;-48
2023/08/11 05:35:12;;;;;;;14.20;6.17;;;;;;;15.58;91.05;98146.72;10377326;28;19958;-51
2023/08/11 05:40:11;;;;;;;10.40;6.60;;;;;;;15.71;89.39;98149.16;10375426;28;20049;-50
2023/08/11 05:45:10;;;;;;;6.68;5.45;;;;;;;15.76;89.21;98165.63;10376298;28;20060;-49
2023/08/11 05:50:09;;;;;;;11.57;6.13;;;;;;;15.68;88.52;98136.97;10375626;28;20067;-51
2023/08/11 05:55:08;;;;;;;9.20;6.53;;;;;;;15.71;88.67;98163.09;10384176;28;20024;-52
2023/08/11 06:00:08;;;;;;;;;;;;;;;15.83;88.68;98162.06;10381796;28;20415;-50
2023/08/11 06:05:08;;;;;;;9.82;6.05;;;;;;;15.82;89.62;98165.59;10380727;28;19948;-51
2023/08/11 06:10:07;;;;;;;8.20;6.07;;;;;;;15.57;91.02;98128.44;10380212;28;20069;-48
2023/08/11 06:15:06;;;;;;;12.45;6.75;;;;;;;16.01;90.29;98177.50;10380174;28;20567;-51
2023/08/11 06:20:08;;;;;;;8.48;5.40;;;;;;;16.20;88.87;98183.28;10380370;28;20095;-48
2023/08/11 06:25:08;;;;;;;8.45;5.35;;;;;;;16.30;87.65;98178.75;10379367;28;20076;-50
2023/08/11 06:30:07;;;;;;;6.75;5.35;;;;;;;16.59;87.21;98187.88;10379394;28;20087;-51
2023/08/11 06:35:07;;;;;;;7.47;5.00;;;;;;;16.92;86.17;98192.50;10380009;28;20068;-49
2023/08/11 06:40:07;;;;;;;8.23;5.88;;;;;;;17.26;85.46;98185.69;10379866;28;20061;-49
2023/08/11 06:45:07;;;;;;;7.53;4.90;;;;;;;17.56;83.79;98184.19;10378994;28;20075;-51
2023/08/11 06:50:06;;;;;;;7.20;4.97;;;;;;;17.84;82.45;98186.22;10379230;28;20060;-51
2023/08/11 06:55:05;;;;;;;9.23;5.00;;;;;;;17.97;81.47;98191.13;10378344;28;20056;-51
2023/08/11 07:00:07;;;;;;;6.60;4.97;;;;;;;18.06;81.05;98155.94;10378473;28;20056;-52
2023/08/11 07:05:06;;;;;;;6.43;5.25;;;;;;;18.45;79.63;98179.44;10377912;28;20052;-50
2023/08/11 07:10:05;;;;;;;7.30;4.45;;;;;;;18.43;77.72;98164.63;10377766;28;20076;-52
2023/08/11 07:15:05;;;;;;;10.73;4.60;;;;;;;18.59;76.64;98187.81;10378858;28;20072;-52
2023/08/11 07:20:05;;;;;;;7.75;4.90;;;;;;;18.48;74.70;98147.84;10377502;28;20072;-50
2023/08/11 07:25:04;;;;;;;9.57;4.75;;;;;;;18.98;74.85;98189.47;10378352;28;20491;-50
2023/08/11 07:30:04;;;;;;;6.50;4.22;;;;;;;19.39;73.40;98183.03;10376883;28;20063;-52
2023/08/11 07:35:05;;;;;;;6.75;3.78;;;;;;;19.65;71.35;98170.88;10377692;28;20071;-49
2023/08/11 07:40:04;;;;;;;7.05;3.40;;;;;;;20.09;67.39;98189.63;10377026;28;20076;-52
2023/08/11 07:45:04;;;;;;;5.45;3.60;;;;;;;19.96;66.82;98109.31;10376149;28;20068;-50
2023/08/11 07:50:04;;;;;;;6.88;3.75;;;;;;;20.67;62.81;98187.72;10376691;28;20064;-49
2023/08/11 07:55:04;;;;;;;5.43;3.63;;;;;;;20.98;62.34;98183.13;10375334;28;20117;-52
2023/08/11 08:00:05;;;;;;;5.25;3.08;;;;;;;21.09;59.32;98171.25;10374628;28;20531;-52
2023/08/11 08:05:04;;;;;;;3.10;2.80;;;;;;;20.97;58.27;98116.31;10376293;28;20068;-52
2023/08/11 08:10:08;;;;;;;3.72;3.05;;;;;;;21.04;56.35;98182.91;10375602;28;20068;-51
2023/08/11 08:15:09;;;;;;;4.32;2.90;;;;;;;21.34;57.35;98181.81;10375178;28;20064;-52
2023/08/11 08:20:13;;;;;;;4.22;3.00;;;;;;;21.67;56.95;98173.50;10368156;28;20068;-51
2023/08/11 08:25:14;;;;;;;5.38;3.10;;;;;;;21.53;55.96;98170.53;10375666;28;20084;-52
2023/08/11 08:30:13;;;;;;;7.97;3.83;;;;;;;21.53;55.91;98126.50;10374583;28;20215;-52
2023/08/11 08:35:12;;;;;;;5.78;3.72;;;;;;;21.97;55.08;98171.44;10375149;28;20076;-49
2023/08/11 08:40:12;;;;;;;4.07;3.45;;;;;;;22.20;55.21;98171.44;10374763;28;20032;-51
2023/08/11 08:45:11;;;;;;;6.97;3.70;;;;;;;22.35;53.84;98171.66;10375612;28;20068;-51
2023/08/11 08:50:11;;;;;;;6.45;3.35;;;;;;;22.33;53.17;98162.94;10374610;28;20583;-49
2023/08/11 08:55:11;;;;;;;6.88;3.70;;;;;;;22.42;53.05;98161.69;10374593;28;20471;-52
2023/08/11 09:00:11;;;;;;;5.43;4.00;;;;;;;22.58;54.01;98168.03;10374617;28;20060;-51
2023/08/11 09:05:12;;;;;;;5.82;3.75;;;;;;;22.69;53.49;98164.91;10373659;28;20538;-52
2023/08/11 09:10:11;;;;;;;4.50;3.50;;;;;;;22.68;53.49;98106.78;10373666;28;20064;-50
2023/08/11 09:15:11;;;;;;;5.65;3.85;;;;;;;23.37;51.12;98146.03;10373789;28;20086;-52
2023/08/11 09:20:12;;;;;;;4.65;3.88;;;;;;;23.66;49.96;98138.53;10374547;28;20064;-49
2023/08/11 09:25:12;;;;;;;5.50;3.92;;;;;;;23.97;49.23;98146.72;10375294;28;20080;-51
2023/08/11 09:30:12;;;;;;;6.10;4.20;;;;;;;24.28;49.10;98145.22;10376024;28;20065;-52
2023/08/11 09:35:12;;;;;;;6.00;4.03;;;;;;;24.44;48.45;98143.50;10381398;28;20053;-52
2023/08/11 09:40:11;;;;;;;6.18;3.78;;;;;;;24.51;46.24;98145.84;10382007;28;20068;-52
2023/08/11 09:45:10;;;;;;;3.50;3.20;;;;;;;24.43;45.69;98143.59;10381288;28;20116;-49
2023/08/11 09:50:09;;;;;;;6.22;3.38;;;;;;;24.56;45.55;98138.50;10379400;28;20512;-53
2023/08/11 09:55:09;;;;;;;3.60;3.10;;;;;;;24.44;44.04;98129.38;10381260;28;20050;-52
2023/08/11 10:00:12;;;;;;;7.85;3.67;;;;;;;24.10;45.57;98136.38;10384269;28;20151;-52
2023/08/11 10:05:13;;;;;;;5.20;3.63;;;;;;;23.84;46.25;98097.88;10382351;28;20539;-48
2023/08/11 10:10:14;;;;;;;4.97;3.33;;;;;;;23.88;45.81;98093.28;10384383;28;20040;-50
2023/08/11 10:15:16;;;;;;;3.85;3.00;;;;;;;23.81;45.48;98128.03;10385298;28;20041;-50
2023/08/11 10:20:16;;;;;;;4.40;2.95;;;;;;;24.12;44.71;98125.66;10383544;28;20067;-48
2023/08/11 10:25:16;;;;;;;3.50;2.80;;;;;;;24.24;43.28;98111.84;10383244;28;20060;-52
2023/08/11 10:30:16;;;;;;;4.25;3.53;;;;;;;24.55;44.46;98105.81;10383105;28;20045;-50
2023/08/11 10:35:24;;;;;;;4.15;3.10;;;;;;;24.78;44.15;98091.31;10383171;28;20427;-52
2023/08/11 10:40:24;;;;;;;3.40;3.10;;;;;;;25.02;42.76;98091.81;10381497;28;20033;-51
2023/08/11 10:45:24;;;;;;;3.47;2.83;;;;;;;25.29;42.13;98089.47;10381326;28;20099;-50
2023/08/11 10:50:23;;;;;;;4.28;2.88;;;;;;;25.47;42.35;98084.06;10381908;28;20441;-51
2023/08/11 10:55:22;;;;;;;3.97;2.90;;;;;;;25.49;41.92;98076.84;10382886;28;20033;-51
2023/08/11 11:00:21;;;;;;;6.15;3.35;;;;;;;25.40;41.78;98077.38;10380140;28;20073;-53
2023/08/11 11:05:21;;;;;;;6.75;3.70;;;;;;;25.21;41.95;98078.41;10376797;28;20131;-51
2023/08/11 11:10:20;;;;;;;3.70;2.97;;;;;;;25.27;41.77;98075.41;10378509;28;20087;-52
2023/08/11 11:15:19;;;;;;;2.88;2.65;;;;;;;25.32;41.16;98075.16;10378307;28;20031;-49
2023/08/11 11:20:18;;;;;;;3.45;2.90;;;;;;;25.10;40.93;98064.84;10377850;28;20029;-49
2023/08/11 11:25:18;;;;;;;3.00;2.70;;;;;;;25.70;39.86;98070.34;10377420;28;20033;-52
2023/08/11 11:30:18;;;;;;;3.55;2.60;;;;;;;26.20;39.24;98067.50;10377300;28;20532;-51
2023/08/11 11:35:18;;;;;;;3.97;2.63;;;;;;;26.49;38.60;98058.63;10377290;28;20073;-52
2023/08/11 11:40:17;;;;;;;2.92;2.25;;;;;;;26.36;38.57;98066.47;10378197;28;20095;-52
2023/08/11 11:45:16;;;;;;;3.75;2.35;;;;;;;25.98;38.42;98062.56;10377514;28;20397;-52
2023/08/11 11:50:16;;;;;;;6.07;2.50;;;;;;;25.80;41.04;98064.50;10376188;28;20025;-51
2023/08/11 11:55:16;;;;;;;3.05;2.75;;;;;;;25.68;41.59;98058.09;10376432;28;20636;-51
2023/08/11 12:00:16;;;;;;;3.13;2.70;;;;;;;25.84;41.56;98063.38;10374870;28;20079;-49
2023/08/11 12:05:15;;;;;;;3.72;2.75;;;;;;;25.73;40.39;98056.88;10376098;28;20076;-50
2023/08/11 12:10:15;;;;;;;3.88;2.40;;;;;;;26.09;39.99;98060.13;10375718;28;20033;-50
2023/08/11 12:15:17;;;;;;;6.03;3.10;;;;;;;26.75;39.40;98053.50;10376355;28;20069;-50
2023/08/11 12:20:17;;;;;;;3.50;3.20;;;;;;;27.38;38.54;98042.41;10375378;28;20079;-52
2023/08/11 12:25:16;;;;;;;3.55;2.40;;;;;;;27.50;35.52;98055.91;10365910;28;20206;-51
2023/08/11 12:30:15;;;;;;;3.55;2.85;;;;;;;27.53;35.54;98053.03;10370153;28;20194;-51
2023/08/11 12:35:14;;;;;;;3.60;2.75;;;;;;;27.47;34.56;98048.09;10374874;28;20472;-51
2023/08/11 12:40:13;;;;;;;4.22;2.17;;;;;;;27.03;34.83;98041.16;10374526;28;20420;-49
2023/08/11 12:45:12;;;;;;;4.15;2.70;;;;;;;26.35;36.31;98005.41;10374050;28;20035;-50
2023/08/11 12:50:11;;;;;;;3.60;2.72;;;;;;;26.57;38.93;98042.19;10374353;28;20037;-49
2023/08/11 12:55:10;;;;;;;6.57;2.42;;;;;;;26.48;38.71;98043.59;10374076;28;20021;-48
2023/08/11 13:00:10;;;;;;;2.83;2.10;;;;;;;26.28;37.52;98042.16;10376862;28;20064;-51
2023/08/11 13:05:09;;;;;;;113.68;12.65;;;;;;;26.20;38.63;98046.22;10372435;28;20068;-51
2023/08/11 13:10:10;;;;;;;2.88;2.60;;;;;;;26.25;38.53;98039.66;10377114;28;20033;-50
2023/08/11 13:15:09;;;;;;;3.60;2.55;;;;;;;26.29;38.09;98043.00;10377453;28;20043;-52
2023/08/11 13:20:09;;;;;;;3.20;2.40;;;;;;;26.27;38.69;98047.56;10376648;28;20063;-52
2023/08/11 13:25:09;;;;;;;4.65;2.58;;;;;;;26.47;37.68;98043.72;10376770;28;20053;-50
2023/08/11 13:30:08;;;;;;;3.33;2.15;;;;;;;26.34;36.78;98003.66;10377414;28;20041;-49
2023/08/11 13:35:12;;;;;;;5.95;2.67;;;;;;;26.86;35.82;98039.53;10376745;28;20051;-52
2023/08/11 13:40:11;;;;;;;5.28;2.30;;;;;;;26.89;35.17;98026.03;10370256;28;20072;-51
2023/08/11 13:45:10;;;;;;;2.97;2.40;;;;;;;26.72;33.92;98033.25;10376374;28;20106;-52
2023/08/11 13:50:09;;;;;;;3.30;2.10;;;;;;;26.72;34.79;98035.91;10376967;28;20579;-52
2023/08/11 13:55:09;;;;;;;3.42;2.42;;;;;;;26.67;34.02;98031.81;10376237;28;20543;-51
2023/08/11 14:00:08;;;;;;;3.58;2.10;;;;;;;26.72;33.87;98037.69;10373568;28;20068;-52
2023/08/11 14:05:07;;;;;;;2.78;2.42;;;;;;;26.41;36.37;98028.09;10372376;28;20083;-52
2023/08/11 14:10:07;;;;;;;2.55;2.30;;;;;;;26.58;36.70;98030.56;10372049;28;20065;-49
2023/08/11 14:15:06;;;;;;;3.60;2.60;;;;;;;26.60;36.43;98027.81;10379705;28;20059;-52
2023/08/11 14:20:07;;;;;;;6.30;2.40;;;;;;;26.46;36.15;97994.91;10379736;28;20063;-49
2023/08/11 14:25:06;;;;;;;4.28;2.50;;;;;;;26.48;35.52;98029.44;10372909;28;20524;-52
2023/08/11 14:30:07;;;;;;;2.58;2.38;;;;;;;26.84;34.20;98026.34;10379476;28;20071;-52
2023/08/11 14:35:07;;;;;;;3.55;2.42;;;;;;;26.75;34.66;98027.72;10380272;28;20065;-48
2023/08/11 14:40:07;;;;;;;2.55;2.30;;;;;;;26.81;35.65;98034.47;10380180;28;20496;-52
2023/08/11 14:45:07;;;;;;;5.70;2.50;;;;;;;27.34;35.59;98030.22;10372111;28;20076;-50
2023/08/11 14:50:06;;;;;;;4.53;2.78;;;;;;;27.59;34.38;98024.19;10378859;28;20474;-52
2023/08/11 14:55:05;;;;;;;3.85;2.67;;;;;;;27.66;34.96;98040.63;10378657;28;20057;-52
2023/08/11 15:00:07;;;;;;;2.53;2.22;;;;;;;27.30;35.55;98036.69;10378528;28;20064;-52
2023/08/11 15:05:06;;;;;;;3.40;2.95;;;;;;;27.47;35.07;98034.78;10378206;28;20072;-51
2023/08/11 15:10:07;;;;;;;3.35;2.75;;;;;;;27.52;34.14;98027.34;10378358;28;20060;-50
2023/08/11 15:15:06;;;;;;;3.05;2.50;;;;;;;27.39;34.63;98020.09;10378436;28;20079;-51
2023/08/11 15:20:06;;;;;;;3.88;2.72;;;;;;;27.39;34.78;98038.75;10377647;28;20068;-51
2023/08/11 15:25:07;;;;;;;3.30;2.90;;;;;;;27.15;34.91;98037.69;10377689;28;20531;-54
2023/08/11 15:30:06;;;;;;;3.60;2.45;;;;;;;26.78;35.24;97992.06;10377386;28;20449;-52
2023/08/11 15:35:06;;;;;;;3.92;2.42;;;;;;;26.85;35.89;98027.19;10377282;28;20484;-51
2023/08/11 15:40:05;;;;;;;3.15;2.45;;;;;;;26.62;37.35;98037.41;10377112;28;20080;-51
2023/08/11 15:45:05;;;;;;;4.18;2.80;;;;;;;26.48;37.91;98040.94;10376795;28;20056;-52
2023/08/11 15:50:04;;;;;;;6.00;3.00;;;;;;;26.40;38.95;98040.56;10370254;28;20061;-53
2023/08/11 15:55:03;;;;;;;5.45;2.90;;;;;;;26.25;39.03;98042.31;10376276;28;20061;-53
2023/08/11 16:00:04;;;;;;;4.53;3.08;;;;;;;26.15;40.54;98044.66;10378822;28;20420;-54
2023/08/11 16:05:04;;;;;;;7.43;3.50;;;;;;;26.04;40.39;98051.56;10379313;28;20029;-52
2023/08/11 16:10:03;;;;;;;6.55;3.28;;;;;;;25.88;40.62;98052.47;10379478;28;20041;-51
2023/08/11 16:15:02;;;;;;;5.95;3.38;;;;;;;25.79;41.47;98057.47;10379260;28;20032;-52
2023/08/11 16:20:01;;;;;;;7.68;2.92;;;;;;;25.66;41.87;98060.81;10378991;28;20507;-49
2023/08/11 16:25:01;;;;;;;5.90;3.20;;;;;;;25.49;42.49;98058.25;10378865;28;20056;-50
2023/08/11 16:30:01;;;;;;;5.72;3.30;;;;;;;25.36;43.08;98058.06;10378918;28;20079;-52
2023/08/11 16:35:00;;;;;;;3.65;3.33;;;;;;;25.26;43.28;98059.53;10377570;28;20064;-52
2023/08/11 16:39:59;;;;;;;7.22;3.53;;;;;;;25.15;44.00;98070.75;10378509;28;20067;-52
2023/08/11 16:44:58;;;;;;;9.07;3.40;;;;;;;25.04;44.49;98067.84;10377998;28;20086;-51
2023/08/11 16:49:57;;;;;;;6.47;3.55;;;;;;;24.89;44.78;98073.06;10379030;28;20041;-49
2023/08/11 16:54:56;;;;;;;4.53;3.38;;;;;;;24.28;45.66;98012.59;10377711;28;20467;-53
2023/08/11 16:59:55;;;;;;;6.65;3.40;;;;;;;24.32;46.17;98074.31;10375470;28;20064;-50
2023/08/11 17:04:54;;;;;;;6.75;3.42;;;;;;;24.13;47.45;98072.56;10373697;28;20029;-51
2023/08/11 17:09:53;;;;;;;6.40;3.60;;;;;;;23.97;47.38;98076.94;10373706;28;20579;-51
2023/08/11 17:14:52;;;;;;;6.68;3.25;;;;;;;23.76;48.16;98074.41;10373602;28;20485;-50
2023/08/11 17:19:51;;;;;;;7.63;4.38;;;;;;;23.47;48.82;98094.38;10373526;28;20068;-53
2023/08/11 17:24:50;;;;;;;6.03;3.72;;;;;;;23.14;49.91;98083.53;10373169;28;20064;-51
2023/08/11 17:29:49;;;;;;;7.22;4.15;;;;;;;22.69;50.15;98067.03;10373420;28;20112;-51
2023/08/11 17:34:49;;;;;;;9.80;4.00;;;;;;;22.69;50.57;98109.34;10373408;28;20065;-51
2023/08/11 17:39:48;;;;;;;6.55;4.25;;;;;;;22.49;51.28;98106.75;10373375;28;20503;-52
2023/08/11 17:44:47;;;;;;;6.30;3.92;;;;;;;22.23;51.54;98111.38;10372718;28;20033;-50
2023/08/11 17:49:46;;;;;;;5.85;4.05;;;;;;;22.08;52.18;98114.66;10380678;28;20064;-49
2023/08/11 17:54:45;;;;;;;6.05;4.43;;;;;;;21.89;52.68;98128.59;10381817;28;20068;-52
2023/08/11 17:59:44;;;;;;;7.32;5.50;;;;;;;21.69;53.08;98128.56;10380699;28;20068;-52
2023/08/11 18:04:44;;;;;;;7.13;4.97;;;;;;;21.53;53.72;98145.00;10380314;28;20035;-52
2023/08/11 18:09:43;;;;;;;9.40;5.05;;;;;;;21.34;54.26;98149.28;10380282;28;20091;-49
2023/08/11 18:15:00;;;;;;;7.85;5.15;;;;;;;20.96;54.78;98113.72;10380569;28;20068;-52
2023/08/11 18:19:59;;;;;;;6.10;4.72;;;;;;;21.04;55.27;98159.16;10381012;28;20075;-50
2023/08/11 18:25:00;;;;;;;7.38;4.70;;;;;;;20.90;55.48;98159.66;10379730;28;20033;-52
2023/08/11 18:29:59;;;;;;;6.03;5.13;;;;;;;20.50;56.28;98135.56;10380285;28;20064;-51
2023/08/11 18:34:58;;;;;;;8.05;4.72;;;;;;;20.55;56.95;98168.84;10379423;28;20056;-52
2023/08/11 18:39:57;;;;;;;8.30;4.32;;;;;;;20.43;58.14;98181.53;10379194;28;20033;-53
2023/08/11 18:44:56;;;;;;;7.13;4.82;;;;;;;20.19;58.95;98185.81;10379695;28;20453;-53
2023/08/11 18:49:55;;;;;;;7.50;4.95;;;;;;;20.03;59.34;98181.97;10378479;28;20060;-49
2023/08/11 18:54:54;;;;;;;7.68;4.72;;;;;;;19.91;60.08;98193.75;10379481;28;20041;-53
2023/08/11 18:59:53;;;;;;;10.55;4.97;;;;;;;19.77;61.14;98194.19;10379893;28;20552;-52
2023/08/11 19:04:52;;;;;;;6.40;4.88;;;;;;;19.66;62.28;98193.66;10382036;28;20492;-51
2023/08/11 19:09:51;;;;;;;12.40;5.60;;;;;;;19.59;62.78;98192.97;10381526;28;20135;-52
2023/08/11 19:14:50;;;;;;;6.88;5.10;;;;;;;19.50;63.08;98184.44;10381376;28;20094;-52
2023/08/11 19:19:49;;;;;;;6.57;5.18;;;;;;;19.44;63.60;98191.63;10381332;28;20036;-52
2023/08/11 19:24:48;;;;;;;6.60;4.80;;;;;;;19.15;64.00;98154.78;10381003;28;20029;-53
2023/08/11 19:29:47;;;;;;;5.70;4.22;;;;;;;18.63;64.49;98088.72;10381430;28;20472;-51
2023/08/11 19:34:46;;;;;;;10.88;4.18;;;;;;;19.14;64.50;98190.75;10381641;28;20408;-50
2023/08/11 19:39:45;;;;;;;8.63;4.00;;;;;;;19.08;64.64;98184.81;10380071;28;20417;-52
2023/08/11 19:44:44;;;;;;;5.13;4.22;;;;;;;19.05;64.63;98190.16;10380978;28;20519;-51
2023/08/11 19:49:43;;;;;;;7.80;4.60;;;;;;;19.00;64.65;98191.13;10380960;28;20041;-53
2023/08/11 19:54:42;;;;;;;9.40;4.65;;;;;;;18.93;65.66;98209.78;10378665;28;20033;-51
2023/08/11 19:59:41;;;;;;;15.02;5.32;;;;;;;18.86;66.57;98202.97;10377775;28;20067;-51
2023/08/11 20:04:41;;;;;;;7.72;5.63;;;;;;;18.63;69.89;98200.91;10375780;28;20060;-51
2023/08/11 20:09:40;;;;;;;7.47;5.50;;;;;;;18.35;69.64;98168.31;10375813;28;20475;-50
2023/08/11 20:14:39;;;;;;;16.33;7.55;;;;;;;18.50;70.87;98209.13;10376165;28;20406;-51
2023/08/11 20:19:38;;;;;;;16.60;7.78;;;;;;;18.46;70.69;98211.88;10375202;28;20123;-52
2023/08/11 20:24:37;;;;;;;7.70;5.43;;;;;;;18.38;71.05;98207.63;10376144;28;20045;-50
2023/08/11 20:29:36;;;;;;;9.30;5.40;;;;;;;18.30;71.45;98211.38;10375789;28;20068;-50
2023/08/11 20:34:35;;;;;;;6.63;5.03;;;;;;;18.25;71.09;98208.00;10374794;28;20112;-49
2023/08/11 20:39:34;;;;;;;6.30;4.65;;;;;;;18.21;70.45;98211.59;10375771;28;20051;-50
2023/08/11 20:44:33;;;;;;;7.65;5.38;;;;;;;18.16;70.25;98209.94;10374390;28;20056;-52
2023/08/11 20:49:32;;;;;;;5.95;4.97;;;;;;;18.12;70.43;98210.91;10374235;28;20036;-51
2023/08/11 20:54:31;;;;;;;9.18;5.10;;;;;;;17.86;70.72;98181.78;10374077;28;20565;-51
2023/08/11 20:59:30;;;;;;;6.97;5.55;;;;;;;17.77;70.73;98170.59;10373294;28;20120;-51
2023/08/11 21:04:29;;;;;;;10.32;5.53;;;;;;;17.96;70.89;98213.06;10374009;28;20072;-49
2023/08/11 21:09:28;;;;;;;9.10;6.10;;;;;;;17.86;73.65;98219.41;10373793;28;20053;-52
2023/08/11 21:14:28;;;;;;;7.60;5.95;;;;;;;17.81;74.49;98212.53;10374122;28;20503;-52
2023/08/11 21:19:27;;;;;;;9.05;6.13;;;;;;;17.64;77.00;98234.75;10373447;28;20075;-49
2023/08/11 21:24:26;;;;;;;8.52;6.47;;;;;;;17.56;76.88;98228.78;10372622;28;20474;-50
2023/08/11 21:29:25;;;;;;;11.93;6.30;;;;;;;17.41;77.59;98245.72;10374039;28;20487;-49
2023/08/11 21:34:24;;;;;;;9.43;5.57;;;;;;;17.37;77.83;98245.81;10373120;28;20053;-52
2023/08/11 21:39:23;;;;;;;7.63;5.82;;;;;;;17.22;77.92;98250.50;10373607;28;20036;-51
2023/08/11 21:44:22;;;;;;;8.45;5.63;;;;;;;17.17;77.78;98248.81;10372749;28;20052;-49
2023/08/11 21:49:21;;;;;;;10.15;5.82;;;;;;;17.11;77.80;98253.31;10372926;28;20083;-49
2023/08/11 21:54:20;;;;;;;8.75;5.65;;;;;;;17.02;77.85;98257.88;10373056;28;20029;-51
2023/08/11 21:59:19;;;;;;;7.47;5.30;;;;;;;16.77;79.53;98247.81;10372334;28;20180;-51
2023/08/11 22:04:18;;;;;;;7.60;5.32;;;;;;;16.42;79.99;98212.63;10372232;28;20043;-52
2023/08/11 22:09:17;;;;;;;9.48;5.25;;;;;;;16.66;79.92;98250.63;10372853;28;20090;-52
2023/08/11 22:14:16;;;;;;;7.30;5.50;;;;;;;16.47;79.91;98231.72;10372265;28;20111;-51
2023/08/11 22:19:15;;;;;;;6.93;5.40;;;;;;;16.53;80.58;98254.31;10372216;28;20097;-51
2023/08/11 22:24:14;;;;;;;7.53;5.30;;;;;;;16.18;81.43;98213.00;10371920;28;20132;-50
2023/08/11 22:29:13;;;;;;;5.93;4.63;;;;;;;16.06;82.70;98248.97;10372232;28;20043;-52
2023/08/11 22:34:12;;;;;;;8.07;5.38;;;;;;;15.94;82.18;98233.44;10374735;28;20092;-50
2023/08/11 22:39:11;;;;;;;9.10;6.10;;;;;;;16.07;81.80;98250.72;10379171;28;20057;-51
2023/08/11 22:44:10;;;;;;;6.68;5.40;;;;;;;16.05;81.86;98231.53;10378741;28;20037;-48
2023/08/11 22:49:09;;;;;;;;;;;;;;;16.02;81.80;98234.22;10379530;28;20503;-51
2023/08/11 22:54:07;;;;;;;10.00;5.27;;;;;;;15.99;82.03;98236.00;10378974;28;19913;-51
2023/08/11 22:59:06;;;;;;;11.07;6.47;;;;;;;15.92;82.36;98235.22;10378477;28;20028;-52
2023/08/11 23:04:05;;;;;;;;;;;;;;;15.90;82.46;98230.91;10378827;28;20057;-52
2023/08/11 23:09:04;;;;;;;10.73;6.45;;;;;;;15.91;82.51;98230.88;10378011;28;19923;-51
2023/08/11 23:14:03;;;;;;;;;;;;;;;15.84;83.07;98226.63;10378492;28;20059;-51